Главная страница
METAR-TAF:

METAR-TAF

Аэропорты :

Вардё, Норвегия

широта: 70-21N, долгота: 031-03E, высота над уровнем моря: 12 м

Текущие метеонаблюдения

Эта сводка был подготовлена 1 час и 44 минут назад, в 17:50 UTC
Ветер 20 Узел от восточно-юго-восточный
Температура 1°C
Влажность 80%
Давление 1009 hPa
Видимость 10 км и более
Рассеянная облачность на высоте 1800 фута

METAR: ENSS 261750Z 11020KT 9999 BKN018 01/M02 Q1009 RMK WIND 500FT 10022KT

Время: 21:34 (19:34 UTC)


TAF: отсутствует

Метеонаблюдения и прогнозы для более 4000 аэропортов (сводки METAR и TAF).

Имеющиеся станции представлены на карте желтыми и красными точками.

Чтобы увидеть название станции, наведите на нее мышь.

Затем щелкните, чтобы увидеть метеонаблюдения и метеопрогнозы.

Управление картой: чтобы увеличить масштаб, щелкните зеленые кнопки с черным крестиком; чтобы уменьшить масштаб, щелкните зеленую кнопку с тире; для просмотра соседних карт щелкайте зеленые стрелки.


METAR-TAF: